Time;durP1;ratioP1;P1;durP2;ratioP2;P2;SDS_P1;SDS_P2;PMS_P1;PMS_P2;Temp;Humidity;BMP_temperature;BMP_pressure;BME280_temperature;BME280_humidity;BME280_pressure;Samples;Min_cycle;Max_cycle;Signal;HPM_P1;HPM_P2
2020/12/14 00:00:09;;;;;;;4.32;1.00;;;6.80;93.40;;;;;;4894791;29;20043;-80
2020/12/14 00:02:36;;;;;;;6.15;1.90;;;6.90;93.40;;;;;;4878595;29;20045;-81
2020/12/14 00:05:03;;;;;;;9.13;1.80;;;6.90;93.30;;;;;;4845135;29;20036;-81
2020/12/14 00:07:30;;;;;;;11.93;2.17;;;6.90;93.20;;;;;;4873192;29;20032;-81
2020/12/14 00:09:58;;;;;;;5.57;1.60;;;6.90;93.20;;;;;;4884757;29;20040;-81
2020/12/14 00:12:25;;;;;;;7.35;1.90;;;7.00;93.20;;;;;;4876274;29;20045;-81
2020/12/14 00:14:51;;;;;;;8.10;1.55;;;7.00;93.10;;;;;;4863727;29;20044;-81
2020/12/14 00:17:19;;;;;;;3.70;1.00;;;7.00;93.00;;;;;;4893357;29;20059;-80
2020/12/14 00:19:47;;;;;;;8.23;1.75;;;7.00;93.10;;;;;;4879824;29;20110;-81
2020/12/14 00:22:14;;;;;;;13.13;1.98;;;7.00;92.90;;;;;;4878508;29;20053;-80
2020/12/14 00:24:40;;;;;;;5.82;1.40;;;7.00;92.70;;;;;;4882671;29;20044;-81
2020/12/14 00:27:07;;;;;;;5.18;1.23;;;7.00;92.70;;;;;;4902603;29;20045;-81
2020/12/14 00:29:33;;;;;;;7.65;1.48;;;7.10;92.70;;;;;;4857165;29;20052;-80
2020/12/14 00:31:59;;;;;;;8.50;1.45;;;7.10;92.80;;;;;;4873793;29;20047;-80
2020/12/14 00:34:26;;;;;;;7.85;1.33;;;7.10;92.70;;;;;;4874435;29;20493;-80
2020/12/14 00:36:52;;;;;;;5.32;0.90;;;7.10;92.70;;;;;;4884058;29;20053;-81
2020/12/14 00:39:19;;;;;;;11.18;1.42;;;7.10;92.70;;;;;;4897096;29;20048;-80
2020/12/14 00:41:45;;;;;;;4.03;0.90;;;7.10;92.60;;;;;;4873951;29;20052;-80
2020/12/14 00:44:12;;;;;;;12.20;1.77;;;7.10;92.70;;;;;;4885330;29;20603;-80
2020/12/14 00:46:38;;;;;;;5.55;1.00;;;7.10;92.60;;;;;;4860787;29;20407;-80
2020/12/14 00:49:05;;;;;;;9.07;1.20;;;7.20;92.70;;;;;;4892677;29;20115;-80
2020/12/14 00:51:31;;;;;;;7.28;1.20;;;7.20;92.60;;;;;;4857706;29;20040;-80
2020/12/14 00:53:58;;;;;;;5.80;1.33;;;7.20;92.60;;;;;;4843882;29;20707;-80
2020/12/14 00:56:25;;;;;;;4.60;1.20;;;7.20;92.60;;;;;;4889344;29;20040;-80
2020/12/14 00:58:51;;;;;;;7.95;1.05;;;7.20;92.50;;;;;;4891034;29;20052;-80
2020/12/14 01:01:18;;;;;;;11.57;1.77;;;7.20;92.20;;;;;;4842965;29;20134;-81
2020/12/14 01:03:45;;;;;;;8.00;1.30;;;7.20;92.10;;;;;;4877806;29;20049;-80
2020/12/14 01:06:12;;;;;;;8.13;0.90;;;7.30;92.10;;;;;;4874190;29;20055;-80
2020/12/14 01:08:41;;;;;;;9.93;1.33;;;7.20;92.00;;;;;;4890600;29;20041;-80
2020/12/14 01:11:09;;;;;;;7.88;0.95;;;7.30;92.00;;;;;;4870882;29;20068;-80
2020/12/14 01:13:35;;;;;;;6.15;0.90;;;7.30;91.80;;;;;;4874722;29;20419;-80
2020/12/14 01:16:10;;;;;;;7.05;1.20;;;7.30;91.90;;;;;;4875191;29;20049;-80
2020/12/14 01:18:37;;;;;;;5.15;1.00;;;7.30;91.80;;;;;;4878181;29;20041;-80
2020/12/14 01:21:06;;;;;;;7.07;1.10;;;7.30;91.90;;;;;;4886165;29;20056;-80
2020/12/14 01:23:33;;;;;;;3.67;0.75;;;7.30;91.90;;;;;;4855026;29;20048;-80
2020/12/14 01:26:00;;;;;;;6.53;0.90;;;7.40;92.00;;;;;;4906116;29;20044;-80
2020/12/14 01:28:27;;;;;;;8.98;1.42;;;7.30;92.10;;;;;;4861318;29;20048;-80
2020/12/14 01:30:53;;;;;;;7.45;1.10;;;7.40;91.90;;;;;;4880167;29;20028;-80
2020/12/14 01:33:20;;;;;;;5.53;0.90;;;7.40;92.00;;;;;;4902363;29;20068;-80
2020/12/14 01:35:47;;;;;;;4.13;0.93;;;7.40;92.00;;;;;;4877864;29;20041;-80
2020/12/14 01:38:13;;;;;;;7.18;1.02;;;7.40;92.10;;;;;;4875542;29;20484;-80
2020/12/14 01:40:40;;;;;;;4.97;1.27;;;7.40;92.20;;;;;;4876675;29;20047;-80
2020/12/14 01:43:07;;;;;;;4.85;1.52;;;7.30;92.20;;;;;;4854012;29;20040;-80
2020/12/14 01:45:33;;;;;;;7.13;0.90;;;7.40;92.20;;;;;;4866939;29;20037;-80
2020/12/14 01:48:03;;;;;;;6.97;0.93;;;7.40;92.30;;;;;;4876648;29;20029;-80
2020/12/14 01:50:29;;;;;;;4.70;0.90;;;7.40;92.30;;;;;;4875508;29;20684;-80
2020/12/14 01:53:00;;;;;;;4.40;1.05;;;7.40;92.40;;;;;;4903129;29;20496;-80
2020/12/14 01:55:32;;;;;;;2.72;0.75;;;7.40;92.20;;;;;;4854018;29;20427;-80
2020/12/14 01:57:59;;;;;;;4.78;1.17;;;7.50;92.30;;;;;;4877223;29;20071;-80
2020/12/14 02:00:26;;;;;;;6.50;0.88;;;7.50;92.30;;;;;;4868246;29;20060;-80
2020/12/14 02:02:52;;;;;;;3.17;0.60;;;7.50;92.30;;;;;;4876033;29;20080;-81
2020/12/14 02:05:19;;;;;;;2.67;0.80;;;7.50;92.30;;;;;;4896420;29;20036;-80
2020/12/14 02:07:46;;;;;;;9.48;1.13;;;7.50;92.40;;;;;;4856195;29;20055;-80
2020/12/14 02:10:13;;;;;;;5.53;0.75;;;7.50;92.30;;;;;;4867501;29;20044;-80
2020/12/14 02:12:40;;;;;;;3.67;0.70;;;7.50;92.30;;;;;;4890086;29;20040;-80
2020/12/14 02:15:06;;;;;;;6.55;1.10;;;7.50;92.30;;;;;;4859594;29;20040;-80
2020/12/14 02:17:33;;;;;;;5.97;1.15;;;7.60;92.40;;;;;;4871651;29;20049;-80
2020/12/14 02:20:00;;;;;;;4.30;1.33;;;7.50;92.30;;;;;;4863081;29;20044;-80
2020/12/14 02:22:28;;;;;;;4.03;1.00;;;7.60;92.20;;;;;;4877654;29;20037;-80
2020/12/14 02:24:57;;;;;;;5.53;0.80;;;7.60;92.10;;;;;;4910332;29;20048;-80
2020/12/14 02:27:24;;;;;;;5.30;1.00;;;7.60;92.10;;;;;;4871567;29;20044;-80
2020/12/14 02:29:52;;;;;;;5.22;1.05;;;7.60;92.00;;;;;;4888237;29;20039;-80
2020/12/14 02:32:20;;;;;;;7.75;1.00;;;7.60;91.90;;;;;;4875250;29;20052;-80
2020/12/14 02:34:47;;;;;;;4.88;1.30;;;7.60;91.90;;;;;;4904112;29;20481;-80
2020/12/14 02:37:16;;;;;;;5.00;0.80;;;7.60;91.90;;;;;;4889717;29;20044;-80
2020/12/14 02:39:42;;;;;;;4.13;0.90;;;7.60;92.30;;;;;;4880469;29;20483;-80
2020/12/14 02:42:20;;;;;;;5.43;1.00;;;7.60;92.30;;;;;;4868497;29;20494;-80
2020/12/14 02:44:47;;;;;;;4.57;0.82;;;7.60;92.00;;;;;;4870995;29;20052;-80
2020/12/14 02:47:14;;;;;;;6.20;1.23;;;7.60;92.00;;;;;;4859018;29;20052;-80
2020/12/14 02:49:41;;;;;;;3.85;0.95;;;7.60;92.00;;;;;;4855975;29;20811;-80
2020/12/14 02:52:09;;;;;;;3.88;1.00;;;7.60;92.10;;;;;;4911202;29;20040;-80
2020/12/14 02:54:37;;;;;;;5.53;1.00;;;7.60;92.00;;;;;;4868819;29;20063;-80
2020/12/14 02:57:03;;;;;;;10.57;1.55;;;7.60;92.10;;;;;;4899253;29;20048;-80
2020/12/14 02:59:30;;;;;;;5.15;1.23;;;7.60;92.00;;;;;;4880038;29;20040;-80
2020/12/14 03:01:56;;;;;;;6.78;1.20;;;7.60;92.10;;;;;;4875041;29;20031;-80
2020/12/14 03:04:24;;;;;;;5.80;1.00;;;7.60;92.20;;;;;;4869570;29;20056;-80
2020/12/14 03:06:50;;;;;;;4.78;1.02;;;7.50;92.30;;;;;;4905082;29;20045;-80
2020/12/14 03:09:19;;;;;;;4.57;1.52;;;7.50;92.50;;;;;;4885892;29;20051;-80
2020/12/14 03:11:47;;;;;;;2.97;0.75;;;7.50;92.60;;;;;;4887005;29;20049;-80
2020/12/14 03:14:17;;;;;;;6.50;1.17;;;7.50;92.80;;;;;;4852343;29;20399;-80
2020/12/14 03:16:53;;;;;;;6.63;1.20;;;7.50;92.80;;;;;;4861336;29;20033;-80
2020/12/14 03:19:19;;;;;;;3.75;1.08;;;7.50;92.90;;;;;;4898368;29;20048;-80
2020/12/14 03:21:46;;;;;;;6.05;1.33;;;7.50;93.00;;;;;;4869118;29;20078;-80
2020/12/14 03:24:15;;;;;;;5.55;1.42;;;7.50;93.10;;;;;;4882703;29;20051;-80
2020/12/14 03:26:41;;;;;;;8.00;1.10;;;7.50;93.10;;;;;;4877132;29;20043;-80
2020/12/14 03:29:08;;;;;;;4.38;1.20;;;7.50;93.10;;;;;;4886013;29;20055;-80
2020/12/14 03:31:36;;;;;;;5.28;1.30;;;7.50;93.20;;;;;;4857338;29;20521;-80
2020/12/14 03:34:03;;;;;;;6.90;1.45;;;7.50;93.20;;;;;;4882496;29;20048;-80
2020/12/14 03:36:29;;;;;;;4.72;1.08;;;7.50;93.10;;;;;;4869081;29;20041;-80
2020/12/14 03:38:56;;;;;;;3.65;0.88;;;7.50;93.20;;;;;;4849995;29;20035;-80
2020/12/14 03:41:23;;;;;;;8.43;1.55;;;7.50;93.20;;;;;;4826988;29;20056;-80
2020/12/14 03:43:51;;;;;;;3.80;1.30;;;7.60;93.30;;;;;;4861760;29;20051;-80
2020/12/14 03:46:23;;;;;;;7.65;1.42;;;7.50;93.40;;;;;;4871955;29;20033;-79
2020/12/14 03:48:53;;;;;;;7.82;1.52;;;7.50;93.40;;;;;;4900876;29;20029;-79
2020/12/14 03:51:21;;;;;;;4.68;1.08;;;7.50;93.50;;;;;;4870015;29;20056;-79
2020/12/14 03:53:48;;;;;;;4.22;1.27;;;7.50;93.60;;;;;;4870381;29;20085;-79
2020/12/14 03:56:27;;;;;;;5.40;1.88;;;7.50;93.70;;;;;;4885284;29;20044;-79
2020/12/14 03:58:53;;;;;;;8.27;1.50;;;7.50;93.90;;;;;;4859610;29;20052;-79
2020/12/14 04:01:25;;;;;;;6.18;1.42;;;7.50;94.00;;;;;;4887588;29;20033;-79
2020/12/14 04:03:52;;;;;;;6.90;1.80;;;7.50;94.10;;;;;;4894854;29;20061;-79
2020/12/14 04:06:21;;;;;;;9.07;1.60;;;7.40;94.20;;;;;;4890124;29;20040;-80
2020/12/14 04:08:48;;;;;;;7.75;2.17;;;7.50;94.30;;;;;;4884413;29;20032;-80
2020/12/14 04:11:15;;;;;;;9.30;2.15;;;7.50;94.50;;;;;;4884980;29;20053;-79
2020/12/14 04:13:42;;;;;;;6.68;1.27;;;7.40;94.60;;;;;;4909639;29;20099;-79
2020/12/14 04:16:09;;;;;;;5.63;2.15;;;7.50;94.70;;;;;;4890296;29;20491;-79
2020/12/14 04:18:36;;;;;;;7.30;2.08;;;7.50;94.70;;;;;;4869399;29;20048;-79
2020/12/14 04:21:04;;;;;;;5.28;2.05;;;7.50;94.80;;;;;;4872702;29;20044;-79
2020/12/14 04:23:30;;;;;;;6.47;1.92;;;7.50;94.90;;;;;;4885832;29;20032;-80
2020/12/14 04:25:57;;;;;;;6.15;1.65;;;7.50;94.90;;;;;;4900798;29;20044;-80
2020/12/14 04:28:23;;;;;;;7.35;1.80;;;7.50;95.20;;;;;;4903840;29;20072;-80
2020/12/14 04:30:50;;;;;;;6.70;1.52;;;7.50;95.00;;;;;;4902264;29;20032;-79
2020/12/14 04:33:17;;;;;;;7.63;2.80;;;7.50;95.00;;;;;;4879642;29;20049;-80
2020/12/14 04:35:43;;;;;;;5.32;2.60;;;7.50;95.10;;;;;;4868844;29;20040;-79
2020/12/14 04:38:09;;;;;;;11.00;3.67;;;7.50;95.20;;;;;;4852809;29;20483;-79
2020/12/14 04:40:36;;;;;;;7.72;2.38;;;7.50;95.20;;;;;;4859537;29;20124;-79
2020/12/14 04:43:03;;;;;;;5.93;1.88;;;7.50;95.30;;;;;;4869140;29;20036;-79
2020/12/14 04:45:29;;;;;;;9.27;2.38;;;7.50;95.40;;;;;;4895534;29;20037;-79
2020/12/14 04:47:58;;;;;;;8.15;3.25;;;7.50;95.40;;;;;;4886632;29;20060;-79
2020/12/14 04:50:26;;;;;;;9.18;2.38;;;7.50;95.40;;;;;;4878870;29;20403;-79
2020/12/14 04:52:54;;;;;;;9.20;4.25;;;7.50;95.50;;;;;;4877966;29;20369;-79
2020/12/14 04:55:23;;;;;;;8.63;3.55;;;7.50;95.60;;;;;;4885858;29;20395;-79
2020/12/14 04:57:51;;;;;;;7.78;2.17;;;7.50;95.70;;;;;;4906743;29;20059;-80
2020/12/14 05:00:19;;;;;;;6.40;2.80;;;7.50;95.80;;;;;;4910382;29;20036;-79
2020/12/14 05:02:54;;;;;;;9.60;2.25;;;7.50;95.80;;;;;;4885777;29;20048;-79
2020/12/14 05:05:21;;;;;;;7.45;2.97;;;7.50;95.80;;;;;;4903740;29;20399;-80
2020/12/14 05:07:48;;;;;;;8.15;2.25;;;7.50;95.90;;;;;;4907103;29;20051;-79
2020/12/14 05:10:15;;;;;;;7.95;2.63;;;7.50;95.90;;;;;;4873514;29;20367;-80
2020/12/14 05:12:43;;;;;;;6.35;2.33;;;7.50;95.90;;;;;;4873177;29;20044;-79
2020/12/14 05:15:26;;;;;;;11.43;3.38;;;7.50;96.00;;;;;;4864485;29;20385;-79
2020/12/14 05:18:06;;;;;;;4.93;2.30;;;7.50;96.00;;;;;;4879910;29;20048;-79
2020/12/14 05:20:33;;;;;;;7.40;2.70;;;7.50;96.10;;;;;;4864826;29;20036;-79
2020/12/14 05:23:08;;;;;;;6.32;3.40;;;7.50;96.10;;;;;;4910805;29;20044;-80
2020/12/14 05:25:35;;;;;;;9.40;3.53;;;7.50;96.10;;;;;;4867291;29;20396;-79
2020/12/14 05:28:11;;;;;;;7.68;3.25;;;7.50;96.20;;;;;;4890602;29;20059;-79
2020/12/14 05:30:46;;;;;;;7.85;3.65;;;7.50;96.20;;;;;;4881670;29;20036;-79
2020/12/14 05:33:15;;;;;;;6.63;3.17;;;7.50;96.50;;;;;;4876053;29;20048;-80
2020/12/14 05:35:44;;;;;;;11.75;3.83;;;7.50;96.30;;;;;;4861077;29;20503;-78
2020/12/14 05:38:18;;;;;;;8.35;5.05;;;7.50;96.30;;;;;;4885167;29;20408;-79
2020/12/14 05:40:48;;;;;;;9.82;4.45;;;7.50;96.40;;;;;;4869717;29;20404;-79
2020/12/14 05:43:16;;;;;;;7.90;3.63;;;7.50;96.40;;;;;;4893952;29;20028;-80
2020/12/14 05:45:44;;;;;;;6.97;3.95;;;7.50;96.40;;;;;;4891615;29;20037;-79
2020/12/14 05:48:31;;;;;;;7.05;3.00;;;7.50;96.40;;;;;;4901231;29;20044;-79
2020/12/14 05:51:02;;;;;;;8.05;3.20;;;7.50;96.50;;;;;;4894254;29;20483;-80
2020/12/14 05:53:40;;;;;;;10.60;5.22;;;7.50;96.50;;;;;;4886334;29;20041;-79
2020/12/14 05:56:08;;;;;;;7.22;3.28;;;7.40;96.40;;;;;;4875701;29;20037;-79
2020/12/14 05:58:37;;;;;;;9.02;3.50;;;7.40;96.50;;;;;;4864557;29;20072;-79
2020/12/14 06:01:08;;;;;;;9.35;2.95;;;7.40;96.50;;;;;;4893633;29;21205;-83
2020/12/14 06:03:35;;;;;;;5.07;2.70;;;7.40;96.50;;;;;;4897745;29;20059;-80
2020/12/14 06:06:06;;;;;;;7.32;2.85;;;7.40;96.50;;;;;;4891404;29;20710;-84
2020/12/14 06:08:45;;;;;;;17.40;11.40;;;7.40;96.50;;;;;;4878658;29;20045;-79
2020/12/14 06:11:12;;;;;;;9.70;4.65;;;7.50;96.60;;;;;;4893272;29;20055;-79
2020/12/14 06:13:53;;;;;;;8.95;3.85;;;7.40;96.50;;;;;;4882372;29;20047;-80
2020/12/14 06:16:22;;;;;;;8.45;3.08;;;7.50;96.60;;;;;;4871436;29;20055;-79
2020/12/14 06:18:49;;;;;;;11.18;4.22;;;7.40;96.60;;;;;;4903433;29;20043;-79
2020/12/14 06:21:20;;;;;;;9.77;2.85;;;7.50;96.60;;;;;;4862445;29;20049;-79
2020/12/14 06:23:48;;;;;;;11.20;3.50;;;7.50;96.60;;;;;;4875877;29;20043;-79
2020/12/14 06:26:15;;;;;;;7.93;4.05;;;7.50;96.60;;;;;;4876985;29;20047;-79
2020/12/14 06:28:50;;;;;;;7.85;3.22;;;7.50;96.60;;;;;;4873026;29;20029;-79
2020/12/14 06:31:33;;;;;;;7.95;3.10;;;7.50;96.70;;;;;;4866394;29;20050;-80
2020/12/14 06:34:05;;;;;;;5.28;3.33;;;7.50;96.70;;;;;;4893049;29;20052;-80
2020/12/14 06:36:40;;;;;;;8.93;3.70;;;7.50;96.70;;;;;;4849471;29;20045;-79
2020/12/14 06:39:30;;;;;;;10.43;3.50;;;7.50;96.70;;;;;;4886888;29;20080;-79
2020/12/14 06:42:09;;;;;;;4.88;2.38;;;7.50;96.70;;;;;;4887449;29;20040;-80
2020/12/14 06:44:44;;;;;;;10.15;4.05;;;7.60;96.70;;;;;;4892125;29;20047;-80
2020/12/14 06:47:18;;;;;;;8.43;3.50;;;7.60;96.70;;;;;;4893308;29;20055;-80
2020/12/14 06:49:48;;;;;;;7.30;3.50;;;7.60;96.70;;;;;;4892800;29;20059;-79
2020/12/14 06:52:34;;;;;;;5.97;3.45;;;7.60;96.70;;;;;;4861927;29;20773;-79
2020/12/14 06:55:01;;;;;;;7.45;4.20;;;7.60;96.70;;;;;;4894086;29;20045;-78
2020/12/14 06:57:39;;;;;;;8.52;3.88;;;7.60;96.70;;;;;;4870847;29;20059;-78
2020/12/14 07:00:06;;;;;;;3.60;3.30;;;7.60;97.00;;;;;;4862195;29;20037;-78
2020/12/14 07:02:41;;;;;;;10.10;3.35;;;7.60;96.80;;;;;;4829547;29;20071;-78
2020/12/14 07:05:29;;;;;;;7.38;4.22;;;7.60;96.80;;;;;;4869724;29;20033;-78
2020/12/14 07:07:57;;;;;;;6.38;3.47;;;7.60;96.80;;;;;;4856140;29;20048;-77
2020/12/14 07:10:25;;;;;;;7.22;4.07;;;7.60;96.80;;;;;;4866831;29;20720;-78
2020/12/14 07:12:52;;;;;;;11.82;3.85;;;7.60;96.80;;;;;;4852769;29;20041;-78
2020/12/14 07:15:27;;;;;;;5.30;3.38;;;7.60;96.80;;;;;;4857695;29;20052;-78
2020/12/14 07:18:05;;;;;;;9.98;4.30;;;7.60;96.90;;;;;;4872936;29;20036;-77
2020/12/14 07:20:33;;;;;;;6.10;4.78;;;7.60;96.90;;;;;;4883219;29;20523;-78
2020/12/14 07:23:07;;;;;;;7.35;3.78;;;7.70;96.90;;;;;;4883807;29;20037;-78
2020/12/14 07:25:34;;;;;;;8.48;5.28;;;7.70;96.90;;;;;;4874195;29;20041;-78
2020/12/14 07:28:03;;;;;;;7.13;5.18;;;7.70;96.90;;;;;;4883496;29;20056;-78
2020/12/14 07:30:30;;;;;;;9.45;5.20;;;7.70;96.90;;;;;;4869244;29;20033;-78
2020/12/14 07:32:59;;;;;;;14.40;6.65;;;7.70;96.90;;;;;;4838476;29;20068;-78
2020/12/14 07:35:25;;;;;;;10.25;5.13;;;7.70;97.00;;;;;;4853646;29;20451;-78
2020/12/14 07:37:52;;;;;;;16.33;5.38;;;7.70;97.00;;;;;;4870349;29;20040;-78
2020/12/14 07:40:18;;;;;;;8.02;4.97;;;7.70;97.00;;;;;;4839879;29;20041;-78
2020/12/14 07:42:46;;;;;;;6.55;3.58;;;7.70;97.00;;;;;;4890266;29;20040;-79
2020/12/14 07:45:23;;;;;;;7.68;4.70;;;7.70;97.10;;;;;;4868310;29;21247;-78
2020/12/14 07:47:51;;;;;;;8.32;4.82;;;7.80;97.10;;;;;;4880039;29;20041;-78
2020/12/14 07:50:23;;;;;;;9.35;4.60;;;7.80;97.10;;;;;;4859375;29;20044;-78
2020/12/14 07:52:53;;;;;;;7.97;5.00;;;7.80;97.10;;;;;;4868739;29;20044;-78
2020/12/14 07:55:22;;;;;;;6.93;5.18;;;7.80;97.10;;;;;;4868575;29;20056;-78
2020/12/14 07:57:50;;;;;;;10.10;6.30;;;7.80;97.20;;;;;;4871882;29;20037;-78
2020/12/14 08:00:22;;;;;;;10.15;6.45;;;7.80;97.20;;;;;;4833445;29;20044;-77
2020/12/14 08:02:50;;;;;;;11.40;7.18;;;7.80;97.20;;;;;;4867389;29;20392;-78
2020/12/14 08:05:19;;;;;;;7.55;6.45;;;7.90;97.20;;;;;;4864261;29;20036;-78
2020/12/14 08:07:49;;;;;;;11.90;8.98;;;7.90;97.20;;;;;;4879214;29;20055;-77
2020/12/14 08:10:30;;;;;;;11.10;7.35;;;7.90;97.30;;;;;;4899405;29;20495;-78
2020/12/14 08:12:58;;;;;;;10.88;7.35;;;8.00;97.30;;;;;;4877822;29;20036;-78
2020/12/14 08:15:25;;;;;;;7.55;6.43;;;8.00;97.30;;;;;;4881689;29;20055;-78
2020/12/14 08:17:52;;;;;;;9.13;6.32;;;8.00;97.30;;;;;;4869233;29;20043;-78
2020/12/14 08:20:30;;;;;;;14.70;7.43;;;8.00;97.30;;;;;;4879916;29;20045;-77
2020/12/14 08:22:58;;;;;;;12.73;9.25;;;8.10;97.30;;;;;;4892548;29;20051;-78
2020/12/14 08:25:31;;;;;;;13.40;9.63;;;8.10;97.30;;;;;;4858770;29;20049;-78
2020/12/14 08:27:59;;;;;;;18.25;10.60;;;8.20;97.30;;;;;;4902468;29;20031;-78
2020/12/14 08:30:27;;;;;;;12.95;10.32;;;8.20;97.30;;;;;;4887695;29;20036;-78
2020/12/14 08:33:12;;;;;;;13.75;9.98;;;8.20;97.30;;;;;;4871224;29;20028;-78
2020/12/14 08:35:40;;;;;;;10.07;8.52;;;8.20;97.30;;;;;;4875705;29;20051;-78
2020/12/14 08:38:13;;;;;;;22.75;15.00;;;8.20;97.30;;;;;;4887964;29;20479;-79
2020/12/14 08:41:03;;;;;;;21.05;18.10;;;8.20;97.40;;;;;;4901775;29;20038;-78
2020/12/14 08:43:34;;;;;;;19.27;14.63;;;8.30;97.40;;;;;;4902099;29;20041;-78
2020/12/14 08:46:09;;;;;;;19.92;14.32;;;8.30;97.40;;;;;;4858014;29;20060;-78
2020/12/14 08:48:53;;;;;;;13.70;10.25;;;8.30;97.40;;;;;;4894770;29;20040;-78
2020/12/14 08:51:26;;;;;;;13.60;10.05;;;8.30;97.40;;;;;;4905284;29;20052;-78
2020/12/14 08:53:56;;;;;;;9.93;8.90;;;8.40;97.50;;;;;;4903765;29;20059;-78
2020/12/14 08:56:31;;;;;;;11.45;7.70;;;8.40;97.40;;;;;;4886897;29;20059;-78
2020/12/14 08:58:59;;;;;;;12.52;9.20;;;8.40;97.40;;;;;;4905947;29;20044;-78
2020/12/14 09:01:28;;;;;;;10.82;9.15;;;8.40;97.40;;;;;;4871197;29;20049;-78
2020/12/14 09:03:58;;;;;;;9.15;7.95;;;8.40;97.50;;;;;;4879678;29;20032;-78
2020/12/14 09:06:27;;;;;;;9.38;8.05;;;8.50;97.50;;;;;;4858707;29;20052;-79
2020/12/14 09:09:02;;;;;;;16.13;11.07;;;8.50;97.50;;;;;;4900528;29;20055;-78
2020/12/14 09:11:31;;;;;;;12.43;9.45;;;8.50;97.50;;;;;;4899435;29;20036;-78
2020/12/14 09:14:07;;;;;;;12.02;8.48;;;8.50;97.50;;;;;;4874265;29;20044;-78
2020/12/14 09:16:36;;;;;;;12.00;8.68;;;8.60;97.50;;;;;;4907020;29;20416;-78
2020/12/14 09:19:03;;;;;;;13.02;10.07;;;8.60;97.50;;;;;;4863065;29;20053;-78
2020/12/14 09:21:33;;;;;;;13.23;10.30;;;8.60;97.50;;;;;;4882147;29;20044;-79
2020/12/14 09:24:11;;;;;;;18.25;13.57;;;8.70;97.60;;;;;;4897980;29;20033;-79
2020/12/14 09:26:38;;;;;;;18.33;12.70;;;8.70;97.60;;;;;;4859960;29;20052;-80
2020/12/14 09:29:05;;;;;;;10.57;8.77;;;8.70;97.50;;;;;;4866169;29;20407;-79
2020/12/14 09:31:31;;;;;;;12.32;9.45;;;8.70;97.50;;;;;;4887630;29;20052;-84
2020/12/14 09:33:58;;;;;;;9.88;7.47;;;8.80;97.60;;;;;;4872889;29;20040;-79
2020/12/14 09:36:26;;;;;;;8.43;7.38;;;8.80;97.60;;;;;;4900687;29;20063;-79
2020/12/14 09:38:54;;;;;;;7.75;6.68;;;8.80;97.60;;;;;;4897923;29;20048;-78
2020/12/14 09:41:30;;;;;;;7.38;5.85;;;8.90;97.60;;;;;;4859104;29;20041;-79
2020/12/14 09:43:58;;;;;;;5.50;4.88;;;8.90;97.60;;;;;;4887509;29;20041;-78
2020/12/14 09:46:28;;;;;;;13.40;7.65;;;9.00;97.50;;;;;;4902053;29;20047;-78
2020/12/14 09:48:56;;;;;;;10.73;8.20;;;9.00;97.50;;;;;;4897188;29;20048;-78
2020/12/14 09:51:27;;;;;;;12.60;9.75;;;9.00;97.50;;;;;;4866493;29;20048;-79
2020/12/14 09:53:55;;;;;;;10.30;7.68;;;9.10;97.50;;;;;;4873557;29;20051;-79
2020/12/14 09:56:23;;;;;;;11.20;9.43;;;9.10;97.50;;;;;;4853762;29;20040;-78
2020/12/14 09:58:49;;;;;;;13.95;9.30;;;9.10;97.50;;;;;;4856522;29;20055;-78
2020/12/14 10:01:16;;;;;;;12.68;7.88;;;9.20;97.50;;;;;;4889758;29;20052;-79
2020/12/14 10:03:42;;;;;;;12.57;8.52;;;9.20;97.50;;;;;;4872175;29;20047;-79
2020/12/14 10:06:10;;;;;;;9.32;5.85;;;9.20;97.50;;;;;;4859950;29;20047;-78
2020/12/14 10:08:37;;;;;;;12.88;7.40;;;9.30;97.50;;;;;;4872788;29;20407;-79
2020/12/14 10:11:03;;;;;;;10.02;6.68;;;9.30;97.50;;;;;;4863564;29;20487;-79
2020/12/14 10:13:30;;;;;;;7.20;5.60;;;9.30;97.50;;;;;;4899056;29;20056;-78
2020/12/14 10:15:56;;;;;;;6.97;5.13;;;9.40;97.60;;;;;;4901140;29;20063;-79
2020/12/14 10:18:27;;;;;;;8.10;6.72;;;9.40;97.60;;;;;;4898371;29;20048;-79
2020/12/14 10:20:54;;;;;;;4.85;4.32;;;9.40;97.60;;;;;;4885629;29;20032;-79
2020/12/14 10:23:20;;;;;;;6.15;5.18;;;9.50;97.60;;;;;;4869138;29;20064;-79
2020/12/14 10:25:47;;;;;;;8.65;6.03;;;9.60;97.50;;;;;;4839547;29;20052;-78
2020/12/14 10:28:13;;;;;;;7.53;6.03;;;9.60;97.50;;;;;;4869765;29;20044;-79
2020/12/14 10:30:40;;;;;;;6.80;6.05;;;9.70;97.60;;;;;;4886657;29;20517;-79
2020/12/14 10:33:06;;;;;;;7.63;4.80;;;9.80;97.60;;;;;;4851915;29;20043;-79
2020/12/14 10:35:33;;;;;;;7.13;5.35;;;9.80;97.60;;;;;;4889457;29;20036;-78
2020/12/14 10:37:59;;;;;;;7.70;6.25;;;9.80;97.60;;;;;;4842038;29;20036;-79
2020/12/14 10:40:27;;;;;;;6.72;4.20;;;9.90;97.60;;;;;;4855401;29;20060;-79
2020/12/14 10:42:54;;;;;;;4.38;3.50;;;10.00;97.60;;;;;;4865884;29;20043;-78
2020/12/14 10:45:21;;;;;;;5.38;4.13;;;10.00;97.90;;;;;;4875358;29;20032;-78
2020/12/14 10:47:47;;;;;;;4.60;4.18;;;10.10;97.60;;;;;;4884585;29;20045;-78
2020/12/14 10:50:16;;;;;;;4.22;3.33;;;10.10;97.60;;;;;;4866133;29;20052;-79
2020/12/14 10:52:42;;;;;;;5.30;4.07;;;10.20;97.60;;;;;;4861682;29;20364;-78
2020/12/14 10:55:09;;;;;;;4.70;3.45;;;10.20;97.60;;;;;;4873490;29;21516;-78
2020/12/14 10:57:36;;;;;;;4.50;3.42;;;10.30;97.50;;;;;;4864099;29;20061;-78
2020/12/14 11:00:09;;;;;;;4.05;2.65;;;10.30;97.50;;;;;;4880332;29;21068;-78
2020/12/14 11:02:40;;;;;;;4.80;3.90;;;10.40;97.60;;;;;;4889860;29;20052;-79
2020/12/14 11:05:08;;;;;;;4.63;4.15;;;10.40;97.50;;;;;;4883960;29;20044;-79
2020/12/14 11:07:35;;;;;;;4.95;4.30;;;10.40;97.50;;;;;;4894630;29;20041;-79
2020/12/14 11:10:04;;;;;;;4.70;4.30;;;10.40;97.50;;;;;;4857817;29;20276;-79
2020/12/14 11:12:32;;;;;;;7.00;4.50;;;10.40;97.50;;;;;;4856233;29;20093;-79
2020/12/14 11:14:59;;;;;;;3.35;2.97;;;10.40;97.50;;;;;;4868485;29;20032;-79
2020/12/14 11:17:44;;;;;;;5.38;3.15;;;10.50;97.50;;;;;;4871870;29;20044;-78
2020/12/14 11:20:31;;;;;;;6.20;3.83;;;10.50;97.50;;;;;;4884866;29;20044;-78
2020/12/14 11:23:16;;;;;;;5.10;3.88;;;10.50;97.40;;;;;;4836716;29;20122;-78
2020/12/14 11:25:43;;;;;;;4.20;3.80;;;10.50;97.40;;;;;;4872521;29;20055;-78
2020/12/14 11:28:10;;;;;;;3.78;3.47;;;10.50;97.40;;;;;;4887244;29;20040;-79
2020/12/14 11:30:36;;;;;;;3.67;3.38;;;10.50;97.40;;;;;;4898300;29;20051;-79
2020/12/14 11:33:03;;;;;;;4.45;4.00;;;10.50;97.40;;;;;;4869232;29;20059;-78
2020/12/14 11:35:29;;;;;;;5.97;3.78;;;10.50;97.40;;;;;;4900086;29;20036;-78
2020/12/14 11:37:56;;;;;;;4.43;3.95;;;10.50;97.40;;;;;;4882042;29;20056;-78
2020/12/14 11:40:22;;;;;;;5.15;3.58;;;10.60;97.40;;;;;;4864362;29;20044;-78
2020/12/14 11:42:49;;;;;;;5.40;3.00;;;10.60;97.40;;;;;;4871908;29;20040;-77
2020/12/14 11:45:15;;;;;;;3.58;2.70;;;10.60;97.40;;;;;;4864910;29;20048;-78
2020/12/14 11:47:42;;;;;;;3.55;2.50;;;10.60;97.40;;;;;;4887444;29;20056;-79
2020/12/14 11:50:08;;;;;;;3.45;3.15;;;10.60;97.40;;;;;;4888540;29;20052;-79
2020/12/14 11:52:35;;;;;;;5.47;3.58;;;10.60;97.30;;;;;;4891852;29;20064;-78
2020/12/14 11:55:03;;;;;;;4.70;4.28;;;10.60;97.30;;;;;;4896008;29;20681;-79
2020/12/14 11:57:29;;;;;;;7.05;4.68;;;10.60;97.30;;;;;;4881372;29;20060;-80
2020/12/14 11:59:57;;;;;;;3.55;3.25;;;10.60;97.30;;;;;;4893963;29;20105;-79
2020/12/14 12:02:23;;;;;;;5.72;3.95;;;10.60;97.30;;;;;;4859171;29;20472;-80
2020/12/14 12:04:50;;;;;;;5.30;3.88;;;10.60;97.30;;;;;;4861535;29;20052;-80
2020/12/14 12:07:16;;;;;;;5.22;3.60;;;10.60;97.30;;;;;;4863501;29;20396;-81
2020/12/14 12:09:43;;;;;;;4.07;3.67;;;10.60;97.20;;;;;;4877632;29;20040;-79
2020/12/14 12:12:09;;;;;;;6.85;3.83;;;10.60;97.20;;;;;;4877877;29;20057;-78
2020/12/14 12:14:36;;;;;;;9.43;4.60;;;10.70;97.20;;;;;;4870621;29;20055;-80
2020/12/14 12:17:02;;;;;;;6.07;3.88;;;10.70;97.20;;;;;;4893534;29;20527;-79
2020/12/14 12:19:29;;;;;;;6.93;4.20;;;10.70;97.10;;;;;;4860159;29;20040;-80
2020/12/14 12:21:59;;;;;;;4.47;3.85;;;10.70;97.10;;;;;;4873977;29;20520;-80
2020/12/14 12:24:26;;;;;;;7.78;4.68;;;10.70;97.10;;;;;;4876628;29;20052;-80
2020/12/14 12:26:52;;;;;;;4.28;3.58;;;10.70;97.10;;;;;;4882426;29;20053;-80
2020/12/14 12:29:19;;;;;;;4.75;3.92;;;10.70;97.00;;;;;;4865011;29;20048;-80
2020/12/14 12:31:55;;;;;;;4.70;3.78;;;10.80;97.00;;;;;;4875185;29;20055;-80
2020/12/14 12:34:22;;;;;;;4.35;3.17;;;10.80;97.00;;;;;;4893424;29;20036;-80
2020/12/14 12:36:53;;;;;;;7.05;3.90;;;10.80;97.00;;;;;;4861529;29;20067;-80
2020/12/14 12:39:20;;;;;;;6.47;3.28;;;10.90;97.00;;;;;;4887456;29;20381;-80
2020/12/14 12:41:48;;;;;;;3.80;3.38;;;10.90;96.90;;;;;;4880598;29;20044;-80
2020/12/14 12:44:16;;;;;;;5.57;3.35;;;11.00;96.90;;;;;;4870048;29;20052;-79
2020/12/14 12:46:43;;;;;;;5.00;3.03;;;11.00;96.80;;;;;;4856803;29;20044;-80
2020/12/14 12:49:09;;;;;;;4.22;3.10;;;11.10;96.90;;;;;;4882127;29;20109;-80
2020/12/14 12:51:36;;;;;;;4.53;2.88;;;11.20;96.90;;;;;;4880381;29;20044;-80
2020/12/14 12:54:03;;;;;;;4.15;2.80;;;11.30;96.80;;;;;;4879393;29;20044;-80
2020/12/14 12:56:30;;;;;;;3.60;2.70;;;11.30;96.60;;;;;;4877429;29;20040;-79
2020/12/14 12:58:56;;;;;;;5.70;2.70;;;11.40;96.60;;;;;;4848388;29;20067;-80
2020/12/14 13:01:23;;;;;;;5.85;2.85;;;11.40;96.50;;;;;;4837125;29;20037;-79